Throop, New York
Current Conditions -  °F | °C
As of 3:54 PM on Tuesday 21 Oct 2014 (Local Time) from KSYR Reporting Station
Overcast Overcast  
Wind Chill: 53°   Ceiling: 2500
Heat Index: 53°   Visibility: 10mi
Dew Point: 49°   Wind: 5mph
Humidity: 86%   Direction: 100°E
Pressure: 29.88"   Gusts: NA
Location:  42.9235°N, 76.5525°W
Report Text: KSYR 211954Z 10004KT 10SM FEW010 OVC025 12/09 A2988 RMK SLP116 T01160093
Loading
Personal Weather Stations






























Interactive Weather Map
Tropical Storm Tracking
New forecast layout! Learn more

10-Day Weather Forecast

Advertisements
Track Severe Weather on mobile